Time;durP1;ratioP1;P1;durP2;ratioP2;P2;SDS_P1;SDS_P2;PMS_P1;PMS_P2;Temp;Humidity;BMP_temperature;BMP_pressure;BME280_temperature;BME280_humidity;BME280_pressure;Samples;Min_cycle;Max_cycle;Signal;HPM_P1;HPM_P2
2021/03/05 00:01:01;;;;;;;4.88;2.10;;;2.40;89.30;;;;;;5048993;28;20037;-74
2021/03/05 00:03:26;;;;;;;3.65;1.83;;;2.40;89.50;;;;;;5047330;28;20036;-75
2021/03/05 00:05:53;;;;;;;6.22;1.95;;;2.40;89.30;;;;;;5048097;28;20049;-74
2021/03/05 00:08:19;;;;;;;10.35;2.05;;;2.40;89.10;;;;;;5047702;28;20063;-74
2021/03/05 00:10:45;;;;;;;2.33;0.90;;;2.40;88.80;;;;;;5032044;28;20033;-75
2021/03/05 00:13:12;;;;;;;4.10;0.68;;;2.40;89.00;;;;;;5038111;28;20116;-75
2021/03/05 00:15:41;;;;;;;7.43;1.05;;;2.50;87.60;;;;;;5029944;28;20042;-75
2021/03/05 00:18:07;;;;;;;4.60;1.02;;;2.50;87.90;;;;;;5043935;28;20452;-75
2021/03/05 00:20:36;;;;;;;5.47;1.25;;;2.50;88.10;;;;;;5041146;28;20067;-75
2021/03/05 00:23:03;;;;;;;4.32;0.60;;;2.60;88.10;;;;;;5047432;28;20056;-75
2021/03/05 00:25:30;;;;;;;1.92;0.50;;;2.60;88.10;;;;;;5032922;28;20049;-74
2021/03/05 00:27:56;;;;;;;3.50;0.93;;;2.60;87.80;;;;;;5028647;28;20100;-75
2021/03/05 00:30:23;;;;;;;3.40;0.95;;;2.60;87.80;;;;;;5031597;28;20448;-74
2021/03/05 00:32:49;;;;;;;7.70;1.20;;;2.60;87.80;;;;;;5031131;28;20041;-74
2021/03/05 00:35:16;;;;;;;2.10;0.47;;;2.60;87.80;;;;;;5047814;28;20048;-75
2021/03/05 00:37:43;;;;;;;4.85;0.60;;;2.60;87.10;;;;;;5046326;28;20076;-75
2021/03/05 00:40:13;;;;;;;2.33;0.30;;;2.60;87.00;;;;;;5025826;28;20041;-75
2021/03/05 00:42:40;;;;;;;2.10;0.60;;;2.60;86.70;;;;;;5046448;28;20037;-75
2021/03/05 00:45:08;;;;;;;7.35;0.75;;;2.60;86.50;;;;;;5047855;28;20040;-75
2021/03/05 00:47:34;;;;;;;3.13;0.82;;;2.50;86.40;;;;;;5047672;28;20143;-75
2021/03/05 00:50:00;;;;;;;1.38;0.40;;;2.50;86.50;;;;;;5048049;28;20783;-75
2021/03/05 00:52:26;;;;;;;3.00;0.43;;;2.50;86.80;;;;;;5042081;28;20044;-75
2021/03/05 00:54:52;;;;;;;5.22;0.70;;;2.40;86.50;;;;;;5037025;28;20042;-74
2021/03/05 00:57:18;;;;;;;2.40;0.20;;;2.40;85.50;;;;;;5026216;28;20054;-74
2021/03/05 00:59:43;;;;;;;1.98;0.30;;;2.40;85.40;;;;;;5041000;28;20048;-75
2021/03/05 01:02:09;;;;;;;3.75;0.25;;;2.50;84.70;;;;;;5047575;28;20041;-75
2021/03/05 01:04:35;;;;;;;3.58;0.45;;;2.50;84.10;;;;;;5030455;28;20452;-75
2021/03/05 01:07:01;;;;;;;5.25;1.52;;;2.50;84.50;;;;;;5049694;28;20056;-75
2021/03/05 01:09:27;;;;;;;5.78;1.23;;;2.40;85.00;;;;;;5030464;28;20124;-75
2021/03/05 01:11:53;;;;;;;1.88;0.30;;;2.40;83.70;;;;;;5031979;28;20188;-75
2021/03/05 01:14:19;;;;;;;6.97;0.73;;;2.40;82.90;;;;;;5033901;28;20092;-74
2021/03/05 01:16:45;;;;;;;1.98;0.52;;;2.40;83.20;;;;;;5031742;28;20037;-75
2021/03/05 01:19:12;;;;;;;2.63;0.25;;;2.50;82.80;;;;;;5038674;28;20046;-75
2021/03/05 01:21:38;;;;;;;5.97;0.55;;;2.50;81.70;;;;;;5031360;28;20041;-74
2021/03/05 01:24:04;;;;;;;3.22;0.10;;;2.60;81.20;;;;;;5014273;28;20044;-75
2021/03/05 01:30:37;;;;;;;1.83;0.32;;;2.50;78.70;;;;;;4854955;28;20664;-77
2021/03/05 01:33:03;;;;;;;9.18;1.05;;;2.50;81.30;;;;;;5046775;28;20057;-77
2021/03/05 01:35:30;;;;;;;2.00;0.75;;;2.50;82.00;;;;;;5039246;28;20037;-74
2021/03/05 01:37:55;;;;;;;5.80;0.55;;;2.40;81.60;;;;;;5035259;28;20413;-75
2021/03/05 01:40:34;;;;;;;3.15;0.10;;;2.40;81.70;;;;;;5033089;28;20043;-74
2021/03/05 01:43:01;;;;;;;2.30;0.68;;;2.30;82.20;;;;;;5051944;28;20045;-74
2021/03/05 01:45:29;;;;;;;0.82;0.10;;;2.40;81.10;;;;;;5013903;28;20311;-75
2021/03/05 01:47:58;;;;;;;3.17;0.70;;;2.40;80.50;;;;;;5013917;28;20037;-75
2021/03/05 01:50:38;;;;;;;4.20;0.20;;;2.40;82.30;;;;;;5012843;28;20045;-75
2021/03/05 01:53:06;;;;;;;0.75;0.20;;;2.50;82.80;;;;;;5030627;28;20045;-75
2021/03/05 01:55:33;;;;;;;7.35;0.40;;;2.30;82.20;;;;;;5047495;28;20068;-75
2021/03/05 01:57:59;;;;;;;1.25;0.20;;;2.30;83.40;;;;;;5050964;28;20048;-75
2021/03/05 02:00:32;;;;;;;5.57;0.40;;;2.20;83.80;;;;;;5016163;28;20041;-75
2021/03/05 02:02:58;;;;;;;2.97;0.30;;;2.20;84.90;;;;;;5031139;28;20048;-75
2021/03/05 02:05:24;;;;;;;4.78;0.20;;;2.20;84.40;;;;;;5036118;28;20044;-74
2021/03/05 02:07:50;;;;;;;7.88;0.65;;;2.20;84.60;;;;;;5052830;28;20056;-74
2021/03/05 02:10:16;;;;;;;3.30;0.82;;;2.20;84.90;;;;;;5035874;28;20037;-74
2021/03/05 02:12:42;;;;;;;3.53;0.30;;;2.20;84.60;;;;;;5069581;28;20114;-75
2021/03/05 02:15:09;;;;;;;7.10;1.17;;;2.20;83.90;;;;;;5032953;28;20496;-74
2021/03/05 02:18:09;;;;;;;5.35;0.70;;;2.20;83.80;;;;;;5070472;28;20348;-75
2021/03/05 02:20:50;;;;;;;9.30;0.20;;;2.20;83.60;;;;;;5068065;28;20306;-75
2021/03/05 02:23:48;;;;;;;2.90;0.30;;;2.10;83.30;;;;;;5070041;28;20040;-74
2021/03/05 02:26:32;;;;;;;2.17;0.17;;;2.10;83.00;;;;;;5052072;28;20049;-74
2021/03/05 02:29:36;;;;;;;4.65;0.20;;;2.10;83.50;;;;;;5052885;28;20052;-74
2021/03/05 02:32:08;;;;;;;0.63;0.20;;;2.00;82.50;;;;;;5059929;28;20048;-74
2021/03/05 02:34:40;;;;;;;5.30;0.30;;;2.00;82.80;;;;;;5071591;28;20044;-74
2021/03/05 02:37:09;;;;;;;3.97;0.20;;;2.00;83.20;;;;;;5090855;28;20051;-74
2021/03/05 02:39:56;;;;;;;7.00;0.63;;;1.90;82.80;;;;;;5084822;28;20040;-74
2021/03/05 02:42:27;;;;;;;2.65;0.70;;;1.80;82.40;;;;;;5081255;28;20383;-74
2021/03/05 02:45:16;;;;;;;3.03;0.20;;;1.80;82.00;;;;;;5090148;28;20379;-74
2021/03/05 02:47:48;;;;;;;5.22;0.30;;;1.80;81.90;;;;;;5069781;28;20052;-74
2021/03/05 02:50:18;;;;;;;6.13;0.28;;;1.70;82.00;;;;;;5090527;28;20047;-74
2021/03/05 02:52:48;;;;;;;3.42;0.50;;;1.70;82.00;;;;;;5087772;28;20047;-74
2021/03/05 02:55:15;;;;;;;5.10;0.20;;;1.60;82.60;;;;;;5089273;28;20136;-74
2021/03/05 02:57:47;;;;;;;5.72;0.35;;;1.60;82.30;;;;;;5090030;28;20046;-74
2021/03/05 03:00:14;;;;;;;1.58;0.20;;;1.50;82.00;;;;;;5077644;28;20117;-75
2021/03/05 03:02:42;;;;;;;3.03;0.88;;;1.50;82.10;;;;;;5035450;28;20044;-74
2021/03/05 03:05:10;;;;;;;4.97;0.20;;;1.50;82.70;;;;;;5069338;28;20127;-74
2021/03/05 03:07:39;;;;;;;1.27;0.10;;;1.40;82.20;;;;;;5069400;28;20101;-74
2021/03/05 03:10:07;;;;;;;2.38;0.57;;;1.50;81.80;;;;;;5051565;28;20051;-74
2021/03/05 03:12:34;;;;;;;5.70;0.25;;;1.50;81.70;;;;;;5069601;28;20481;-74
2021/03/05 03:15:03;;;;;;;1.77;0.17;;;1.40;81.00;;;;;;5071171;28;20533;-74
2021/03/05 03:17:30;;;;;;;8.98;1.20;;;1.50;81.30;;;;;;5089516;28;20046;-74
2021/03/05 03:19:58;;;;;;;5.03;0.68;;;1.50;80.90;;;;;;5061051;28;20045;-75
2021/03/05 03:22:24;;;;;;;6.95;0.40;;;1.40;80.60;;;;;;5089082;28;20062;-75
2021/03/05 03:24:51;;;;;;;4.10;0.25;;;1.40;80.50;;;;;;5089592;28;20413;-74
2021/03/05 03:27:16;;;;;;;2.58;0.30;;;1.40;80.20;;;;;;5071056;28;20047;-74
2021/03/05 03:29:43;;;;;;;2.67;0.10;;;1.30;80.50;;;;;;5050073;28;20610;-74
2021/03/05 03:32:10;;;;;;;2.17;0.10;;;1.30;79.10;;;;;;5068032;28;20048;-74
2021/03/05 03:34:41;;;;;;;3.80;0.17;;;1.30;79.70;;;;;;5068818;28;20131;-74
2021/03/05 03:37:09;;;;;;;7.57;0.40;;;1.30;80.40;;;;;;5069109;28;20040;-74
2021/03/05 03:39:35;;;;;;;1.95;1.08;;;1.30;80.10;;;;;;5056958;28;20032;-74
2021/03/05 03:42:03;;;;;;;4.43;0.10;;;1.30;79.30;;;;;;5051350;28;20071;-74
2021/03/05 03:44:29;;;;;;;1.65;0.40;;;1.30;78.60;;;;;;5056082;28;20040;-74
2021/03/05 03:46:55;;;;;;;1.90;0.10;;;1.30;79.40;;;;;;5071233;28;20170;-74
2021/03/05 03:49:35;;;;;;;3.80;0.10;;;1.30;78.60;;;;;;5070975;28;20040;-74
2021/03/05 03:52:10;;;;;;;2.00;0.00;;;1.20;78.60;;;;;;5076371;28;20037;-74
2021/03/05 03:54:37;;;;;;;4.25;0.10;;;1.20;78.30;;;;;;5068317;28;20040;-74
2021/03/05 03:57:06;;;;;;;2.05;0.47;;;1.30;78.10;;;;;;5080369;28;20051;-74
2021/03/05 03:59:34;;;;;;;3.60;0.10;;;1.30;78.20;;;;;;5070677;28;20463;-74
2021/03/05 04:02:01;;;;;;;1.05;0.20;;;1.30;77.40;;;;;;5071122;28;20389;-74
2021/03/05 04:04:32;;;;;;;0.98;0.57;;;1.40;77.70;;;;;;5088181;28;20154;-74
2021/03/05 04:07:00;;;;;;;2.28;0.30;;;1.40;77.00;;;;;;5088435;28;20040;-74
2021/03/05 04:09:28;;;;;;;0.90;0.20;;;1.50;75.90;;;;;;5088141;28;20043;-74
2021/03/05 04:11:55;;;;;;;3.00;0.20;;;1.50;74.80;;;;;;5070783;28;20074;-75
2021/03/05 04:14:24;;;;;;;9.38;1.08;;;1.50;76.50;;;;;;5086816;28;20052;-74
2021/03/05 04:16:52;;;;;;;2.70;0.17;;;1.50;76.40;;;;;;5088838;28;20036;-74
2021/03/05 04:19:21;;;;;;;4.05;0.13;;;1.60;75.90;;;;;;5050224;28;20051;-74
2021/03/05 04:21:47;;;;;;;1.13;0.13;;;1.60;76.80;;;;;;5088687;28;20428;-74
2021/03/05 04:24:14;;;;;;;4.20;0.13;;;1.60;77.00;;;;;;5068579;28;20040;-75
2021/03/05 04:26:40;;;;;;;2.10;0.20;;;1.60;76.40;;;;;;5088500;28;20196;-74
2021/03/05 04:29:05;;;;;;;1.33;0.10;;;1.60;75.30;;;;;;5088216;28;20473;-75
2021/03/05 04:31:32;;;;;;;4.03;0.20;;;1.60;76.20;;;;;;5087820;28;20056;-75
2021/03/05 04:33:58;;;;;;;1.92;0.47;;;1.60;75.30;;;;;;5088404;28;20044;-75
2021/03/05 04:36:23;;;;;;;1.63;0.35;;;1.60;76.30;;;;;;5067530;28;20072;-75
2021/03/05 04:38:49;;;;;;;2.10;0.00;;;1.50;76.50;;;;;;5077416;28;20044;-75
2021/03/05 04:41:15;;;;;;;5.57;1.00;;;1.50;78.00;;;;;;5071968;28;20126;-75
2021/03/05 04:43:41;;;;;;;4.15;0.10;;;1.40;78.30;;;;;;5086531;28;20196;-75
2021/03/05 04:46:07;;;;;;;0.75;0.22;;;1.40;76.90;;;;;;5074744;28;20504;-74
2021/03/05 04:48:33;;;;;;;3.05;0.20;;;1.50;75.40;;;;;;5092505;28;20044;-74
2021/03/05 04:50:58;;;;;;;2.50;0.15;;;1.50;74.80;;;;;;5070330;28;20112;-74
2021/03/05 04:53:24;;;;;;;0.60;0.52;;;1.60;75.20;;;;;;5070716;28;20094;-74
2021/03/05 04:55:50;;;;;;;2.85;0.45;;;1.60;76.80;;;;;;5057255;28;20064;-74
2021/03/05 04:58:16;;;;;;;4.50;0.28;;;1.60;76.30;;;;;;5083703;28;20044;-74
2021/03/05 05:00:41;;;;;;;1.90;0.10;;;1.50;76.40;;;;;;5054558;28;20448;-74
2021/03/05 05:03:07;;;;;;;4.65;0.25;;;1.50;76.30;;;;;;5054642;28;20041;-75
2021/03/05 05:05:34;;;;;;;2.65;1.05;;;1.50;75.30;;;;;;5083749;28;20040;-74
2021/03/05 05:07:59;;;;;;;1.27;0.20;;;1.50;76.30;;;;;;5054347;28;20051;-75
2021/03/05 05:10:26;;;;;;;0.28;0.00;;;1.50;75.70;;;;;;5053677;28;20036;-74
2021/03/05 05:12:51;;;;;;;2.15;0.75;;;1.50;75.60;;;;;;5068050;28;20047;-75
2021/03/05 05:15:17;;;;;;;0.73;0.00;;;1.50;75.70;;;;;;5073753;28;20044;-74
2021/03/05 05:17:43;;;;;;;1.77;0.10;;;1.40;74.90;;;;;;5092065;28;20066;-75
2021/03/05 05:20:10;;;;;;;2.58;0.10;;;1.40;75.60;;;;;;5045138;28;20094;-74
2021/03/05 05:22:37;;;;;;;1.27;0.15;;;1.40;75.90;;;;;;5051388;28;20094;-74
2021/03/05 05:25:04;;;;;;;2.63;0.20;;;1.40;75.90;;;;;;5033851;28;20048;-75
2021/03/05 05:27:30;;;;;;;3.67;0.10;;;1.30;77.00;;;;;;5065346;28;20036;-75
2021/03/05 05:29:56;;;;;;;5.70;0.10;;;1.30;76.90;;;;;;5091720;28;20040;-75
2021/03/05 05:32:22;;;;;;;2.47;0.10;;;1.20;76.80;;;;;;5065964;28;20589;-74
2021/03/05 05:34:48;;;;;;;0.30;0.00;;;1.20;75.80;;;;;;5070973;28;20044;-74
2021/03/05 05:37:14;;;;;;;2.08;0.10;;;1.20;77.50;;;;;;5057983;28;20480;-74
2021/03/05 05:39:40;;;;;;;3.83;1.00;;;1.30;77.20;;;;;;5038969;28;20434;-74
2021/03/05 05:42:07;;;;;;;1.65;0.28;;;1.30;76.30;;;;;;5052757;28;20046;-74
2021/03/05 05:44:33;;;;;;;4.57;0.10;;;1.30;77.20;;;;;;5070852;28;20048;-74
2021/03/05 05:47:01;;;;;;;1.48;0.10;;;1.30;75.90;;;;;;5054781;28;20147;-74
2021/03/05 05:49:28;;;;;;;4.43;0.10;;;1.30;74.80;;;;;;5089811;28;20046;-75
2021/03/05 05:51:59;;;;;;;0.95;0.08;;;1.40;74.80;;;;;;5073257;28;20039;-74
2021/03/05 05:54:26;;;;;;;4.07;0.20;;;1.30;75.70;;;;;;5089578;28;20055;-74
2021/03/05 05:56:52;;;;;;;2.70;0.10;;;1.30;76.70;;;;;;5073377;28;20055;-75
2021/03/05 05:59:19;;;;;;;0.80;0.10;;;1.30;75.90;;;;;;5090399;28;20116;-74
2021/03/05 06:01:46;;;;;;;2.28;0.73;;;1.30;76.10;;;;;;5055445;28;20512;-75
2021/03/05 06:04:14;;;;;;;1.95;0.10;;;1.30;77.20;;;;;;5072933;28;20040;-74
2021/03/05 06:06:41;;;;;;;0.88;0.00;;;1.30;75.90;;;;;;5073012;28;20046;-74
2021/03/05 06:09:07;;;;;;;2.13;0.10;;;1.30;76.30;;;;;;5075437;28;20365;-77
2021/03/05 06:11:42;;;;;;;0.73;0.10;;;1.30;76.10;;;;;;5070226;28;20048;-77
2021/03/05 06:14:10;;;;;;;6.63;1.98;;;1.30;76.90;;;;;;5055338;28;20439;-77
2021/03/05 06:16:50;;;;;;;2.83;0.13;;;1.20;77.50;;;;;;5070057;28;20048;-77
2021/03/05 06:19:17;;;;;;;4.10;0.90;;;1.20;77.10;;;;;;5054175;28;20456;-77
2021/03/05 06:21:43;;;;;;;0.60;0.05;;;1.20;76.70;;;;;;5075802;28;20048;-77
2021/03/05 06:24:09;;;;;;;2.45;0.20;;;1.20;77.50;;;;;;5081824;28;20044;-74
2021/03/05 06:26:49;;;;;;;1.40;0.10;;;1.20;78.00;;;;;;5067137;28;20048;-74
2021/03/05 06:29:16;;;;;;;4.95;0.10;;;1.20;76.10;;;;;;5084389;28;20077;-74
2021/03/05 06:31:50;;;;;;;2.95;0.40;;;1.20;77.60;;;;;;5085913;28;20067;-74
2021/03/05 06:34:16;;;;;;;3.60;0.00;;;1.20;77.30;;;;;;5070481;28;20040;-74
2021/03/05 06:36:42;;;;;;;4.18;0.55;;;1.20;77.70;;;;;;5056172;28;20043;-74
2021/03/05 06:39:08;;;;;;;0.77;0.30;;;1.20;77.40;;;;;;5081443;28;20075;-74
2021/03/05 06:41:36;;;;;;;1.20;0.10;;;1.20;78.40;;;;;;5083070;28;20123;-74
2021/03/05 06:44:04;;;;;;;1.15;0.10;;;1.20;77.80;;;;;;5067144;28;20047;-74
2021/03/05 06:46:34;;;;;;;9.27;0.47;;;1.20;78.50;;;;;;5085798;28;20051;-74
2021/03/05 06:49:04;;;;;;;5.00;0.80;;;1.10;78.30;;;;;;5086564;28;20051;-74
2021/03/05 06:51:30;;;;;;;2.30;0.20;;;1.10;79.00;;;;;;5088150;28;20075;-77
2021/03/05 06:54:14;;;;;;;0.35;0.00;;;1.00;79.00;;;;;;5087241;28;20063;-77
2021/03/05 06:56:41;;;;;;;;;;;1.00;79.60;;;;;;5089239;28;20040;-77
2021/03/05 06:59:18;;;;;;;4.85;0.32;;;0.90;78.40;;;;;;5077883;28;19998;-77
2021/03/05 07:01:56;;;;;;;1.77;0.10;;;0.90;79.90;;;;;;5085103;28;20439;-77
2021/03/05 07:04:26;;;;;;;1.25;0.10;;;0.90;79.90;;;;;;5081411;28;20040;-77
2021/03/05 07:06:56;;;;;;;2.75;0.10;;;0.90;79.90;;;;;;5085340;28;20048;-77
2021/03/05 07:09:25;;;;;;;3.33;0.20;;;0.90;80.20;;;;;;5049109;28;20047;-77
2021/03/05 07:11:53;;;;;;;1.67;0.10;;;1.00;80.00;;;;;;5086665;28;20040;-74
2021/03/05 07:14:19;;;;;;;1.35;0.20;;;1.10;80.50;;;;;;5064647;28;20040;-74
2021/03/05 07:16:49;;;;;;;1.65;0.45;;;1.10;80.00;;;;;;5054198;28;20435;-75
2021/03/05 07:19:17;;;;;;;2.70;0.08;;;1.20;79.60;;;;;;5066487;28;20041;-74
2021/03/05 07:21:46;;;;;;;0.10;0.00;;;1.30;80.00;;;;;;5063551;28;20043;-74
2021/03/05 07:24:14;;;;;;;5.20;0.15;;;1.40;79.70;;;;;;5079779;28;20064;-74
2021/03/05 07:26:44;;;;;;;2.15;0.35;;;1.40;79.50;;;;;;5082433;28;20064;-75
2021/03/05 07:29:18;;;;;;;4.32;0.10;;;1.50;79.50;;;;;;5065744;28;20044;-74
2021/03/05 07:31:44;;;;;;;0.88;0.15;;;1.50;80.20;;;;;;5085709;28;20083;-74
2021/03/05 07:34:16;;;;;;;2.47;0.10;;;1.60;80.10;;;;;;5066830;28;20101;-74
2021/03/05 07:36:49;;;;;;;3.88;0.47;;;1.70;79.80;;;;;;5054003;28;20437;-74
2021/03/05 07:39:27;;;;;;;1.90;0.40;;;1.70;80.00;;;;;;5077983;28;20040;-75
2021/03/05 07:41:54;;;;;;;1.92;0.08;;;1.80;79.70;;;;;;5065069;28;20119;-74
2021/03/05 07:44:22;;;;;;;0.65;0.10;;;1.80;79.70;;;;;;5067966;28;20048;-74
2021/03/05 07:46:48;;;;;;;0.52;0.25;;;2.20;80.80;;;;;;5067605;28;20433;-74
2021/03/05 07:49:22;;;;;;;0.38;0.03;;;3.60;79.60;;;;;;5069724;28;20032;-74
2021/03/05 07:51:49;;;;;;;3.03;0.45;;;5.10;76.50;;;;;;5089252;28;20051;-74
2021/03/05 07:54:40;;;;;;;1.52;0.00;;;6.30;74.00;;;;;;5082055;28;20068;-74
2021/03/05 07:57:07;;;;;;;1.27;0.10;;;7.50;71.00;;;;;;5077851;28;20418;-74
2021/03/05 07:59:42;;;;;;;0.82;0.10;;;8.40;68.90;;;;;;5082814;28;20051;-74
2021/03/05 08:02:08;;;;;;;1.98;0.15;;;9.00;66.90;;;;;;5080750;28;20357;-74
2021/03/05 08:04:50;;;;;;;1.85;0.10;;;9.50;65.60;;;;;;5056725;28;20068;-74
2021/03/05 08:07:24;;;;;;;2.70;0.20;;;9.90;64.70;;;;;;5082674;28;20036;-74
2021/03/05 08:09:50;;;;;;;1.13;0.03;;;10.10;65.20;;;;;;5087330;28;20321;-74
2021/03/05 08:12:28;;;;;;;1.27;0.00;;;10.50;66.20;;;;;;5085797;28;20047;-74
2021/03/05 08:15:10;;;;;;;0.57;0.10;;;10.40;60.50;;;;;;5087613;28;20086;-74
2021/03/05 08:17:38;;;;;;;3.22;0.43;;;10.10;57.80;;;;;;5076438;28;20040;-74
2021/03/05 08:20:08;;;;;;;2.00;0.10;;;9.90;63.90;;;;;;5063578;28;20047;-74
2021/03/05 08:22:57;;;;;;;2.00;0.15;;;9.90;66.80;;;;;;5079487;28;20175;-74
2021/03/05 08:25:27;;;;;;;2.53;0.00;;;9.90;57.40;;;;;;5074722;28;20043;-74
2021/03/05 08:27:54;;;;;;;1.85;0.10;;;9.90;65.60;;;;;;5064308;28;20405;-74
2021/03/05 08:30:29;;;;;;;1.80;0.10;;;10.30;66.30;;;;;;5085184;28;20040;-74
2021/03/05 08:32:59;;;;;;;0.25;0.25;;;10.30;64.20;;;;;;5084689;28;20056;-74
2021/03/05 08:35:28;;;;;;;0.55;0.10;;;9.90;64.60;;;;;;5078764;28;20043;-74
2021/03/05 08:38:08;;;;;;;2.45;0.00;;;9.70;65.90;;;;;;5080580;28;20120;-74
2021/03/05 08:40:38;;;;;;;2.25;0.10;;;9.80;66.40;;;;;;5067124;28;20047;-74
2021/03/05 08:43:10;;;;;;;1.55;0.00;;;9.90;65.30;;;;;;5085355;28;20051;-73
2021/03/05 08:45:40;;;;;;;2.92;0.17;;;10.00;65.70;;;;;;5087168;28;20051;-74
2021/03/05 08:48:07;;;;;;;1.88;0.00;;;10.00;64.70;;;;;;5087223;28;20044;-73
2021/03/05 08:50:37;;;;;;;3.72;0.15;;;9.90;66.40;;;;;;5051150;28;20147;-74
2021/03/05 08:53:13;;;;;;;0.73;0.10;;;9.90;67.10;;;;;;5074686;28;20546;-73
2021/03/05 08:55:41;;;;;;;1.73;0.10;;;9.80;66.50;;;;;;5054924;28;20064;-73
2021/03/05 08:58:08;;;;;;;1.02;0.00;;;9.60;67.10;;;;;;5083611;28;20097;-73
2021/03/05 09:00:36;;;;;;;2.00;0.45;;;9.20;67.10;;;;;;5080438;28;20045;-74
2021/03/05 09:03:07;;;;;;;1.23;0.68;;;8.80;68.10;;;;;;5085246;28;20105;-74
2021/03/05 09:05:36;;;;;;;0.10;0.00;;;8.30;68.10;;;;;;5083898;28;20044;-73
2021/03/05 09:08:05;;;;;;;0.90;0.00;;;7.70;68.60;;;;;;5069244;28;20040;-73
2021/03/05 09:11:00;;;;;;;1.73;0.00;;;7.30;70.50;;;;;;5086589;28;20044;-74
2021/03/05 09:13:31;;;;;;;2.78;0.17;;;6.80;69.00;;;;;;5081639;28;20573;-74
2021/03/05 09:15:59;;;;;;;0.30;0.08;;;6.40;73.40;;;;;;5058189;28;20160;-73
2021/03/05 09:18:30;;;;;;;1.33;0.00;;;6.10;72.50;;;;;;5069044;28;20059;-73
2021/03/05 09:21:00;;;;;;;0.25;0.22;;;5.90;75.10;;;;;;5079592;28;20041;-73
2021/03/05 09:23:33;;;;;;;2.58;0.10;;;5.80;72.90;;;;;;5066370;28;20066;-73
2021/03/05 09:26:05;;;;;;;0.80;0.00;;;5.70;76.40;;;;;;5082118;28;20441;-73
2021/03/05 09:28:44;;;;;;;1.75;0.65;;;5.70;75.50;;;;;;5086435;28;20061;-73
2021/03/05 09:31:13;;;;;;;1.83;0.75;;;5.60;75.30;;;;;;5088259;28;20097;-74
2021/03/05 09:33:41;;;;;;;0.98;0.05;;;5.60;73.20;;;;;;5072765;28;20084;-73
2021/03/05 09:36:14;;;;;;;1.00;0.00;;;5.50;74.00;;;;;;5067342;28;20122;-73
2021/03/05 09:38:43;;;;;;;0.13;0.00;;;5.50;75.40;;;;;;5081860;28;20411;-73
2021/03/05 09:41:14;;;;;;;0.22;0.00;;;5.60;75.20;;;;;;5071756;28;20082;-73
2021/03/05 09:43:41;;;;;;;0.25;0.00;;;5.60;73.30;;;;;;5090043;28;20048;-74
2021/03/05 09:46:21;;;;;;;0.10;0.00;;;5.60;74.20;;;;;;5084013;28;20048;-74
2021/03/05 09:48:49;;;;;;;1.85;0.00;;;5.70;74.60;;;;;;5062362;28;20553;-73
2021/03/05 09:51:15;;;;;;;0.10;0.00;;;5.80;73.20;;;;;;5085553;28;20047;-74
2021/03/05 09:53:56;;;;;;;4.53;0.38;;;5.80;75.00;;;;;;5082086;28;20102;-74
2021/03/05 09:56:27;;;;;;;1.90;0.73;;;6.00;73.20;;;;;;5086491;28;20036;-74
2021/03/05 09:59:02;;;;;;;1.23;0.00;;;6.10;74.60;;;;;;5085126;28;20041;-74
2021/03/05 10:01:34;;;;;;;0.93;0.00;;;6.10;73.80;;;;;;5088061;28;20461;-74
2021/03/05 10:04:02;;;;;;;0.60;0.05;;;6.20;73.30;;;;;;5088129;28;20066;-74
2021/03/05 10:06:30;;;;;;;5.25;0.10;;;6.20;73.70;;;;;;5072328;28;20054;-74
2021/03/05 10:09:02;;;;;;;1.95;0.00;;;6.40;74.00;;;;;;5087083;28;20047;-74
2021/03/05 10:11:36;;;;;;;1.90;0.10;;;6.50;72.90;;;;;;5082126;28;20079;-74
2021/03/05 10:14:05;;;;;;;3.08;0.10;;;6.50;69.60;;;;;;5081014;28;20428;-74
2021/03/05 10:16:36;;;;;;;1.30;0.20;;;6.40;72.70;;;;;;5085125;28;20044;-74
2021/03/05 10:19:04;;;;;;;2.78;0.10;;;6.30;72.20;;;;;;5066069;28;20548;-74
2021/03/05 10:21:30;;;;;;;1.85;0.10;;;6.20;72.50;;;;;;5086698;28;20488;-74
2021/03/05 10:23:57;;;;;;;2.90;0.10;;;6.00;72.20;;;;;;5087135;28;20429;-74
2021/03/05 10:26:27;;;;;;;2.30;0.20;;;5.90;74.00;;;;;;5087509;28;20723;-74
2021/03/05 10:29:05;;;;;;;0.52;0.00;;;6.00;72.20;;;;;;5071778;28;20043;-74
2021/03/05 10:31:49;;;;;;;3.35;0.00;;;6.20;73.50;;;;;;5060743;28;20043;-74
2021/03/05 10:34:31;;;;;;;5.13;0.10;;;6.50;69.90;;;;;;5082278;28;20043;-74
2021/03/05 10:37:02;;;;;;;2.90;0.45;;;6.80;70.80;;;;;;5086364;28;20417;-74
2021/03/05 10:39:33;;;;;;;2.75;0.15;;;7.00;70.10;;;;;;5085850;28;20136;-74
2021/03/05 10:42:04;;;;;;;2.30;0.00;;;7.20;73.00;;;;;;5066197;28;20372;-74
2021/03/05 10:44:32;;;;;;;2.90;0.63;;;7.10;72.50;;;;;;5083927;28;20367;-74
2021/03/05 10:47:06;;;;;;;2.92;0.17;;;6.90;73.60;;;;;;5061906;28;20716;-74
2021/03/05 10:49:37;;;;;;;3.42;0.30;;;7.00;73.00;;;;;;5077384;28;20039;-74
2021/03/05 10:52:04;;;;;;;0.90;0.10;;;7.00;73.10;;;;;;5064029;28;20042;-74
2021/03/05 10:54:30;;;;;;;0.65;0.08;;;6.90;72.20;;;;;;5068792;28;20481;-74
2021/03/05 10:56:56;;;;;;;0.85;0.00;;;6.90;72.20;;;;;;5067575;28;20119;-74
2021/03/05 10:59:23;;;;;;;0.80;0.03;;;6.70;71.00;;;;;;5087802;28;20040;-74
2021/03/05 11:01:53;;;;;;;1.80;0.17;;;6.50;71.70;;;;;;5070312;28;20032;-74
2021/03/05 11:04:26;;;;;;;2.45;0.10;;;6.60;71.60;;;;;;5072476;28;20032;-74
2021/03/05 11:06:53;;;;;;;3.78;0.30;;;6.70;73.50;;;;;;5082783;28;20051;-74
2021/03/05 11:09:21;;;;;;;4.53;0.75;;;6.80;70.40;;;;;;5078654;28;20120;-74
2021/03/05 11:11:47;;;;;;;1.52;0.10;;;6.70;69.90;;;;;;5066917;28;20044;-74
2021/03/05 11:14:14;;;;;;;1.13;0.10;;;6.80;69.60;;;;;;5080879;28;20071;-74
2021/03/05 11:16:40;;;;;;;1.63;0.05;;;7.00;71.70;;;;;;5085665;28;20054;-74
2021/03/05 11:19:07;;;;;;;3.75;0.10;;;7.10;70.60;;;;;;5084040;28;20417;-74
2021/03/05 11:21:33;;;;;;;5.07;0.10;;;7.00;70.90;;;;;;5087359;28;20078;-74
2021/03/05 11:24:00;;;;;;;7.70;0.22;;;6.90;69.30;;;;;;5087176;28;20040;-74
2021/03/05 11:26:25;;;;;;;2.00;0.10;;;7.10;72.00;;;;;;5088338;28;20092;-74
2021/03/05 11:28:53;;;;;;;2.15;0.10;;;7.20;70.60;;;;;;5082822;28;20036;-73
2021/03/05 11:31:19;;;;;;;4.60;0.40;;;7.30;71.20;;;;;;5080570;28;20127;-74
2021/03/05 11:33:46;;;;;;;4.10;0.50;;;7.50;72.00;;;;;;5064039;28;20098;-74
2021/03/05 11:36:12;;;;;;;11.77;0.73;;;7.60;71.60;;;;;;5029614;28;20132;-74
2021/03/05 11:38:39;;;;;;;3.42;0.05;;;7.80;68.90;;;;;;5062145;28;20051;-74
2021/03/05 11:41:06;;;;;;;6.80;0.17;;;7.70;69.80;;;;;;5062226;28;20048;-74
2021/03/05 11:43:47;;;;;;;1.55;0.38;;;7.70;70.60;;;;;;5058490;28;20041;-74
2021/03/05 11:46:14;;;;;;;1.92;0.00;;;7.70;71.20;;;;;;5054445;28;20052;-74
2021/03/05 11:48:41;;;;;;;0.85;0.10;;;7.80;68.70;;;;;;5061125;28;20043;-74
2021/03/05 11:51:07;;;;;;;3.63;0.20;;;7.80;69.60;;;;;;5047071;28;20044;-74
2021/03/05 11:53:33;;;;;;;1.10;0.10;;;7.80;69.20;;;;;;5063829;28;20119;-74
2021/03/05 11:55:59;;;;;;;1.95;0.20;;;7.90;68.60;;;;;;5066795;28;20129;-73
2021/03/05 11:58:25;;;;;;;1.38;0.00;;;7.80;68.40;;;;;;5049199;28;20098;-74
2021/03/05 12:00:51;;;;;;;1.52;0.15;;;7.80;69.40;;;;;;5044160;28;20048;-74
2021/03/05 12:03:17;;;;;;;2.08;0.10;;;7.90;70.50;;;;;;5062158;28;20036;-74
2021/03/05 12:05:43;;;;;;;2.47;0.10;;;8.00;69.90;;;;;;5020271;28;20049;-74
2021/03/05 12:08:09;;;;;;;1.55;0.10;;;8.00;66.90;;;;;;5062996;28;20182;-74
2021/03/05 12:10:41;;;;;;;1.58;0.10;;;8.00;69.50;;;;;;5043848;28;20457;-74
2021/03/05 12:13:07;;;;;;;1.75;0.03;;;8.10;69.20;;;;;;5064697;28;20044;-74
2021/03/05 12:15:33;;;;;;;1.85;0.40;;;8.00;70.40;;;;;;5055240;28;20537;-74
2021/03/05 12:17:59;;;;;;;2.60;0.05;;;8.00;70.20;;;;;;5066333;28;20085;-74
2021/03/05 12:20:25;;;;;;;1.95;0.10;;;8.00;68.20;;;;;;5060260;28;20480;-74
2021/03/05 12:22:51;;;;;;;4.97;0.38;;;8.00;68.50;;;;;;5066892;28;20036;-74
2021/03/05 12:25:37;;;;;;;2.25;0.10;;;7.90;69.10;;;;;;5046020;28;20398;-74
2021/03/05 12:28:23;;;;;;;2.40;0.30;;;7.80;69.00;;;;;;5030903;28;20102;-74
2021/03/05 12:31:09;;;;;;;8.75;0.20;;;7.80;68.80;;;;;;5032536;28;20099;-73
2021/03/05 12:33:56;;;;;;;4.10;0.10;;;7.80;69.40;;;;;;5028422;28;20056;-74
2021/03/05 12:36:42;;;;;;;1.63;0.10;;;8.00;69.00;;;;;;5033542;28;20076;-74
2021/03/05 12:39:29;;;;;;;2.67;0.10;;;8.00;68.60;;;;;;5043711;28;20051;-74
2021/03/05 12:41:55;;;;;;;0.22;0.00;;;8.10;70.80;;;;;;5058657;28;20043;-74
2021/03/05 12:44:21;;;;;;;2.88;0.35;;;8.20;69.60;;;;;;5045869;28;20052;-74
2021/03/05 12:46:47;;;;;;;3.50;0.10;;;8.20;69.30;;;;;;5061658;28;20044;-74
2021/03/05 12:49:13;;;;;;;3.20;0.80;;;8.20;69.90;;;;;;5065425;28;20627;-74
2021/03/05 12:51:39;;;;;;;2.08;0.30;;;8.30;70.70;;;;;;5046731;28;20329;-73
2021/03/05 12:54:05;;;;;;;1.38;0.10;;;8.50;70.40;;;;;;5059668;28;20440;-74
2021/03/05 12:56:31;;;;;;;2.72;0.15;;;8.60;70.50;;;;;;5067199;28;20135;-73
2021/03/05 12:58:57;;;;;;;1.45;0.00;;;8.70;70.70;;;;;;5002048;28;20051;-73
2021/03/05 13:01:23;;;;;;;0.88;0.03;;;8.80;70.80;;;;;;5060314;28;20692;-74
2021/03/05 13:03:49;;;;;;;1.88;0.20;;;8.90;70.00;;;;;;5061971;28;20481;-74
2021/03/05 13:06:15;;;;;;;5.13;1.02;;;8.80;69.70;;;;;;5065893;28;20547;-73
2021/03/05 13:08:41;;;;;;;1.02;0.00;;;8.70;68.80;;;;;;5031852;28;20040;-74
2021/03/05 13:11:07;;;;;;;1.10;0.10;;;8.60;68.90;;;;;;5066881;28;20771;-74
2021/03/05 13:13:34;;;;;;;3.72;0.10;;;8.60;68.70;;;;;;5051535;28;20044;-73